Terminal Aerodrome Forecast
Issued by NWS

Home | Current Version | Previous Version | Text Only | Print | Product List | Glossary Off
Versions: 1 2 3 4 5 6 7 8 9 10 11 12 13 14 15 16 17 18 19 20 21 22

477
FTUS43 KBIS 250849 AAA
TAFJMS
TAF AMD
KJMS 250849Z 2509/2606 32006KT P6SM FEW012 OVC021
     FM251200 34006KT P6SM OVC020
     FM251800 01008KT P6SM OVC010
     FM252200 01008KT P6SM OVC020
     FM260300 02005KT P6SM OVC030=

USA.gov is the U.S. government's official web portal to all federal, state and local government web resources and services.